Time;durP1;ratioP1;P1;durP2;ratioP2;P2;SDS_P1;SDS_P2;PMS_P1;PMS_P2;Temp;Humidity;BMP_temperature;BMP_pressure;BME280_temperature;BME280_humidity;BME280_pressure;Samples;Min_cycle;Max_cycle;Signal;HPM_P1;HPM_P2
2021/07/17 00:00:07;;;;;;;2.95;2.67;;;29.80;69.00;;;;;;5087171;28;20051;-43
2021/07/17 00:02:33;;;;;;;3.45;2.83;;;29.80;69.10;;;;;;5105154;28;20024;-42
2021/07/17 00:04:59;;;;;;;3.30;3.00;;;29.70;69.00;;;;;;5086919;28;20127;-42
2021/07/17 00:07:25;;;;;;;3.30;3.00;;;29.70;69.10;;;;;;5104726;28;20118;-43
2021/07/17 00:09:52;;;;;;;3.10;2.83;;;29.70;69.10;;;;;;5105007;28;20034;-42
2021/07/17 00:12:18;;;;;;;2.97;2.67;;;29.70;69.10;;;;;;5104999;28;20032;-43
2021/07/17 00:14:44;;;;;;;3.22;2.97;;;29.80;69.20;;;;;;5105196;28;20020;-43
2021/07/17 00:17:10;;;;;;;4.17;3.20;;;29.70;69.10;;;;;;5104519;28;20059;-42
2021/07/17 00:19:36;;;;;;;2.40;2.20;;;29.70;69.10;;;;;;5104841;28;20016;-42
2021/07/17 00:22:03;;;;;;;3.20;2.77;;;29.70;69.20;;;;;;5099523;28;20277;-42
2021/07/17 00:24:29;;;;;;;2.78;2.55;;;29.70;69.20;;;;;;5094518;28;20384;-42
2021/07/17 00:26:55;;;;;;;2.90;2.70;;;29.70;69.20;;;;;;5104397;28;20047;-42
2021/07/17 00:29:21;;;;;;;2.90;2.70;;;29.70;69.20;;;;;;5104703;28;20048;-42
2021/07/17 00:31:47;;;;;;;3.50;2.70;;;29.70;69.20;;;;;;5104429;28;20050;-42
2021/07/17 00:34:13;;;;;;;2.87;2.60;;;29.60;69.20;;;;;;5104492;28;20348;-43
2021/07/17 00:36:40;;;;;;;3.30;3.00;;;29.60;69.20;;;;;;5103005;28;20047;-42
2021/07/17 00:39:06;;;;;;;3.63;3.27;;;29.60;69.20;;;;;;5086329;28;20610;-42
2021/07/17 00:41:32;;;;;;;2.93;2.70;;;29.60;69.20;;;;;;5104611;28;20083;-42
2021/07/17 00:43:58;;;;;;;3.15;2.88;;;29.60;69.20;;;;;;5104425;28;20026;-42
2021/07/17 00:46:26;;;;;;;3.10;2.80;;;29.60;69.20;;;;;;5103955;28;20028;-43
2021/07/17 00:48:52;;;;;;;2.83;2.63;;;29.60;69.30;;;;;;5086014;28;20261;-42
2021/07/17 00:51:19;;;;;;;3.47;2.70;;;29.60;69.30;;;;;;5085971;28;20127;-42
2021/07/17 00:53:45;;;;;;;3.35;2.42;;;29.60;69.30;;;;;;5085777;28;20630;-42
2021/07/17 00:56:12;;;;;;;3.73;2.83;;;29.60;69.30;;;;;;5103699;28;20031;-43
2021/07/17 00:58:38;;;;;;;3.10;2.80;;;29.50;69.30;;;;;;5069048;28;20293;-43
2021/07/17 01:01:04;;;;;;;2.60;2.40;;;29.50;69.30;;;;;;5069174;28;20046;-43
2021/07/17 01:03:30;;;;;;;3.60;2.80;;;29.50;69.30;;;;;;5085749;28;20063;-43
2021/07/17 01:05:56;;;;;;;4.67;2.70;;;29.50;69.30;;;;;;5068634;28;20280;-42
2021/07/17 01:08:22;;;;;;;3.70;2.73;;;29.50;69.30;;;;;;5103711;28;20024;-42
2021/07/17 01:10:49;;;;;;;3.37;2.60;;;29.50;69.30;;;;;;5103675;28;20249;-42
2021/07/17 01:13:15;;;;;;;2.73;2.53;;;29.50;69.30;;;;;;5103764;28;20265;-42
2021/07/17 01:15:41;;;;;;;5.28;2.60;;;29.40;69.20;;;;;;5103705;28;20036;-42
2021/07/17 01:18:08;;;;;;;2.60;2.40;;;29.40;69.20;;;;;;5103157;28;20402;-42
2021/07/17 01:20:34;;;;;;;2.67;2.47;;;29.40;69.20;;;;;;5103531;28;20027;-42
2021/07/17 01:23:00;;;;;;;3.42;2.72;;;29.40;69.30;;;;;;5071772;28;20032;-42
2021/07/17 01:25:28;;;;;;;2.50;2.30;;;29.40;69.30;;;;;;5100982;28;20023;-42
2021/07/17 01:27:54;;;;;;;3.13;2.60;;;29.40;69.30;;;;;;5102268;28;20028;-42
2021/07/17 01:30:32;;;;;;;3.30;2.70;;;29.40;69.40;;;;;;5103382;28;20099;-42
2021/07/17 01:32:58;;;;;;;3.03;2.72;;;29.40;69.40;;;;;;5102990;28;20786;-42
2021/07/17 01:35:24;;;;;;;3.38;2.38;;;29.30;69.30;;;;;;5103105;28;20020;-42
2021/07/17 01:37:50;;;;;;;2.63;2.43;;;29.30;69.30;;;;;;5103154;28;20047;-42
2021/07/17 01:40:22;;;;;;;3.37;2.40;;;29.30;69.30;;;;;;5103218;28;20272;-42
2021/07/17 01:42:52;;;;;;;2.78;2.58;;;29.30;69.30;;;;;;5103044;28;20295;-42
2021/07/17 01:45:39;;;;;;;2.90;2.47;;;29.30;70.10;;;;;;5103204;28;20020;-42
2021/07/17 01:48:05;;;;;;;4.90;2.40;;;29.30;69.40;;;;;;5102407;28;20134;-41
2021/07/17 01:50:36;;;;;;;2.75;2.55;;;29.30;69.40;;;;;;5103159;28;20028;-42
2021/07/17 01:53:05;;;;;;;3.05;2.50;;;29.20;69.30;;;;;;5103030;28;20408;-42
2021/07/17 01:55:35;;;;;;;3.15;2.53;;;29.20;69.30;;;;;;5102946;28;20024;-43
2021/07/17 01:58:01;;;;;;;2.65;2.30;;;29.20;69.30;;;;;;5084425;28;20044;-42
2021/07/17 02:00:27;;;;;;;3.50;2.45;;;29.20;69.40;;;;;;5102724;28;20040;-42
2021/07/17 02:02:53;;;;;;;3.95;2.63;;;29.20;69.30;;;;;;5102834;28;20028;-42
2021/07/17 02:05:20;;;;;;;2.92;2.65;;;29.20;69.40;;;;;;5102800;28;20034;-42
2021/07/17 02:07:46;;;;;;;4.45;2.90;;;29.20;69.30;;;;;;5084607;28;20050;-42
2021/07/17 02:10:20;;;;;;;2.72;2.17;;;29.20;69.40;;;;;;5102603;28;20024;-42
2021/07/17 02:13:18;;;;;;;3.42;2.47;;;29.20;69.40;;;;;;5084441;28;20733;-43
2021/07/17 02:15:49;;;;;;;3.15;2.60;;;29.20;69.40;;;;;;5083195;28;20041;-42
2021/07/17 02:18:31;;;;;;;2.80;2.22;;;29.10;69.40;;;;;;5084695;28;20068;-42
2021/07/17 02:21:03;;;;;;;2.75;2.45;;;29.20;69.40;;;;;;5102460;28;20540;-42
2021/07/17 02:23:29;;;;;;;3.42;2.72;;;29.10;69.50;;;;;;5102348;28;20056;-42
2021/07/17 02:25:55;;;;;;;2.80;2.30;;;29.10;69.40;;;;;;5102647;28;20055;-43
2021/07/17 02:28:21;;;;;;;2.93;2.63;;;29.10;69.50;;;;;;5083088;28;20258;-42
2021/07/17 02:30:49;;;;;;;3.50;2.90;;;29.10;69.50;;;;;;5082223;28;20017;-43
2021/07/17 02:33:15;;;;;;;3.00;2.53;;;29.10;69.50;;;;;;5082378;28;20047;-43
2021/07/17 02:35:41;;;;;;;2.70;2.40;;;29.10;69.40;;;;;;5082173;28;20016;-43
2021/07/17 02:38:07;;;;;;;2.90;2.63;;;29.00;69.40;;;;;;5092131;28;20256;-42
2021/07/17 02:40:36;;;;;;;2.75;2.55;;;29.00;69.50;;;;;;5102025;28;20021;-43
2021/07/17 02:43:03;;;;;;;2.85;2.53;;;29.00;69.40;;;;;;5102251;28;20028;-42
2021/07/17 02:45:29;;;;;;;3.08;2.63;;;29.00;69.40;;;;;;5102303;28;20054;-42
2021/07/17 02:47:55;;;;;;;2.87;2.60;;;29.00;69.40;;;;;;5102576;28;20043;-42
2021/07/17 02:50:25;;;;;;;3.83;2.67;;;29.00;69.30;;;;;;5102173;28;20318;-41
2021/07/17 02:52:51;;;;;;;3.17;2.88;;;29.00;69.40;;;;;;5102307;28;20046;-42
2021/07/17 02:55:17;;;;;;;3.38;2.75;;;28.90;69.30;;;;;;5102425;28;20050;-42
2021/07/17 02:57:44;;;;;;;3.63;2.80;;;28.90;69.30;;;;;;5102060;28;20052;-42
2021/07/17 03:00:12;;;;;;;3.20;2.90;;;28.90;69.20;;;;;;5104180;28;20028;-42
2021/07/17 03:02:38;;;;;;;3.60;2.72;;;28.90;69.20;;;;;;5106182;28;20560;-43
2021/07/17 03:05:05;;;;;;;3.03;2.83;;;28.90;69.20;;;;;;5087888;28;20099;-42
2021/07/17 03:07:31;;;;;;;3.35;2.95;;;28.90;69.20;;;;;;5106026;28;20066;-42
2021/07/17 03:09:57;;;;;;;2.95;2.55;;;28.90;69.20;;;;;;5105902;28;20020;-42
2021/07/17 03:12:23;;;;;;;2.70;2.43;;;28.80;69.20;;;;;;5106055;28;20116;-42
2021/07/17 03:14:49;;;;;;;3.07;2.77;;;28.80;69.20;;;;;;5106101;28;20028;-42
2021/07/17 03:17:16;;;;;;;3.77;3.47;;;28.80;69.10;;;;;;5105956;28;20363;-41
2021/07/17 03:19:42;;;;;;;3.00;2.70;;;28.80;69.20;;;;;;5105643;28;20035;-41
2021/07/17 03:22:08;;;;;;;3.27;2.97;;;28.80;69.10;;;;;;5105919;28;20056;-42
2021/07/17 03:24:34;;;;;;;4.60;3.07;;;28.80;69.20;;;;;;5105871;28;20028;-42
2021/07/17 03:27:00;;;;;;;4.43;2.90;;;28.80;69.10;;;;;;5105278;28;20042;-42
2021/07/17 03:29:26;;;;;;;3.93;3.27;;;28.80;69.20;;;;;;5105828;28;20016;-42
2021/07/17 03:31:53;;;;;;;3.33;3.03;;;28.70;69.10;;;;;;5105293;28;20028;-42
2021/07/17 03:34:19;;;;;;;4.40;3.20;;;28.70;69.20;;;;;;5105544;28;20019;-42
2021/07/17 03:36:45;;;;;;;3.73;2.90;;;28.70;69.20;;;;;;5105680;28;20523;-42
2021/07/17 03:39:11;;;;;;;3.40;3.10;;;28.70;69.20;;;;;;5105742;28;20036;-43
2021/07/17 03:41:37;;;;;;;3.57;3.07;;;28.70;69.20;;;;;;5105317;28;20016;-43
2021/07/17 03:44:04;;;;;;;3.40;2.93;;;28.70;69.20;;;;;;5105412;28;20028;-42
2021/07/17 03:46:30;;;;;;;;;;;28.60;69.20;;;;;;5105851;28;20044;-41
2021/07/17 03:48:56;;;;;;;3.58;2.92;;;28.60;69.20;;;;;;5105329;28;19915;-42
2021/07/17 03:51:23;;;;;;;2.80;2.50;;;28.60;69.10;;;;;;5105087;28;20099;-42
2021/07/17 03:53:49;;;;;;;3.00;2.75;;;28.60;69.00;;;;;;5105222;28;20105;-43
2021/07/17 03:56:15;;;;;;;3.00;2.70;;;28.60;69.00;;;;;;5105199;28;20032;-42
2021/07/17 03:58:41;;;;;;;3.37;2.93;;;28.60;69.20;;;;;;5105081;28;20028;-42
2021/07/17 04:01:07;;;;;;;3.27;2.97;;;28.60;69.20;;;;;;5104974;28;20120;-42
2021/07/17 04:03:33;;;;;;;3.33;3.03;;;28.60;69.00;;;;;;5104985;28;20771;-42
2021/07/17 04:06:00;;;;;;;3.33;2.77;;;28.60;68.90;;;;;;5104969;28;20513;-43
2021/07/17 04:08:26;;;;;;;3.13;2.83;;;28.50;69.20;;;;;;5086901;28;20753;-42
2021/07/17 04:10:53;;;;;;;3.50;3.20;;;28.50;69.10;;;;;;5086493;28;20035;-42
2021/07/17 04:13:19;;;;;;;5.45;2.70;;;28.50;69.00;;;;;;5104823;28;20024;-42
2021/07/17 04:15:45;;;;;;;4.87;3.00;;;28.50;69.10;;;;;;5105073;28;20044;-43
2021/07/17 04:18:11;;;;;;;4.50;3.23;;;28.50;69.10;;;;;;5104656;28;20052;-43
2021/07/17 04:20:38;;;;;;;3.47;3.17;;;28.50;69.20;;;;;;5104672;28;20023;-42
2021/07/17 04:23:04;;;;;;;2.90;2.57;;;28.50;69.00;;;;;;5104803;28;20439;-42
2021/07/17 04:25:30;;;;;;;3.55;2.90;;;28.50;69.20;;;;;;5104428;28;20024;-42
2021/07/17 04:27:56;;;;;;;3.23;2.47;;;28.50;69.10;;;;;;5104432;28;20095;-42
2021/07/17 04:30:23;;;;;;;4.28;2.75;;;28.40;68.90;;;;;;5086576;28;20260;-43
2021/07/17 04:32:49;;;;;;;4.37;3.07;;;28.40;68.90;;;;;;5104213;28;20027;-42
2021/07/17 04:35:15;;;;;;;3.77;3.23;;;28.40;68.80;;;;;;5104504;28;20456;-43
2021/07/17 04:37:41;;;;;;;3.57;2.83;;;28.40;68.90;;;;;;5104696;28;20024;-43
2021/07/17 04:40:08;;;;;;;2.87;2.67;;;28.40;68.90;;;;;;5104614;28;20120;-42
2021/07/17 04:42:34;;;;;;;2.92;2.55;;;28.40;68.90;;;;;;5104180;28;20051;-42
2021/07/17 04:45:00;;;;;;;3.03;2.73;;;28.40;68.80;;;;;;5104416;28;20534;-41
2021/07/17 04:47:26;;;;;;;3.33;2.77;;;28.40;68.80;;;;;;5103964;28;20032;-42
2021/07/17 04:49:52;;;;;;;3.08;2.63;;;28.40;69.70;;;;;;5104218;28;20485;-42
2021/07/17 04:52:18;;;;;;;3.00;2.60;;;28.30;68.70;;;;;;5103965;28;20035;-42
2021/07/17 04:54:45;;;;;;;3.40;2.80;;;28.30;68.80;;;;;;5104130;28;20035;-42
2021/07/17 04:57:11;;;;;;;3.77;2.87;;;28.30;68.80;;;;;;5103950;28;20108;-42
2021/07/17 04:59:37;;;;;;;2.73;2.50;;;28.30;68.80;;;;;;5104065;28;20139;-42
2021/07/17 05:02:03;;;;;;;3.30;2.77;;;28.30;68.80;;;;;;5103921;28;20629;-42
2021/07/17 05:04:29;;;;;;;3.40;3.10;;;28.30;68.80;;;;;;5103462;28;20083;-42
2021/07/17 05:06:56;;;;;;;3.33;2.60;;;28.20;68.70;;;;;;5103758;28;20481;-42
2021/07/17 05:09:22;;;;;;;3.83;2.90;;;28.20;68.80;;;;;;5104048;28;20256;-41
2021/07/17 05:11:48;;;;;;;2.93;2.67;;;28.20;68.60;;;;;;5103625;28;20100;-41
2021/07/17 05:14:14;;;;;;;2.83;2.60;;;28.20;68.70;;;;;;5103908;28;20024;-42
2021/07/17 05:16:40;;;;;;;2.70;2.40;;;28.20;68.70;;;;;;5103703;28;20109;-41
2021/07/17 05:19:06;;;;;;;3.77;2.63;;;28.20;68.80;;;;;;5103703;28;20052;-42
2021/07/17 05:21:32;;;;;;;3.10;2.80;;;28.20;68.70;;;;;;5103183;28;20028;-41
2021/07/17 05:23:58;;;;;;;2.90;2.50;;;28.10;68.70;;;;;;5103034;28;20024;-42
2021/07/17 05:26:25;;;;;;;3.88;2.90;;;28.20;68.80;;;;;;5103230;28;20056;-42
2021/07/17 05:28:51;;;;;;;2.78;2.58;;;28.10;68.60;;;;;;5103607;28;20035;-42
2021/07/17 05:31:19;;;;;;;2.47;2.27;;;28.10;68.70;;;;;;5103284;28;20028;-42
2021/07/17 05:33:45;;;;;;;3.45;2.90;;;28.10;68.70;;;;;;5103256;28;20251;-42
2021/07/17 05:36:11;;;;;;;2.88;2.30;;;28.10;68.70;;;;;;5103324;28;20048;-43
2021/07/17 05:38:37;;;;;;;3.47;2.57;;;28.10;68.60;;;;;;5103554;28;20032;-42
2021/07/17 05:41:03;;;;;;;2.60;2.40;;;28.10;68.70;;;;;;5103330;28;20028;-41
2021/07/17 05:43:29;;;;;;;2.67;2.47;;;28.00;68.60;;;;;;5103235;28;20028;-42
2021/07/17 05:45:55;;;;;;;2.60;2.40;;;28.00;68.60;;;;;;5103336;28;20423;-42
2021/07/17 05:48:22;;;;;;;3.63;2.37;;;28.00;68.60;;;;;;5103058;28;20028;-42
2021/07/17 05:50:48;;;;;;;2.80;2.60;;;28.00;68.60;;;;;;5103058;28;20118;-42
2021/07/17 05:53:15;;;;;;;2.45;2.25;;;28.00;68.60;;;;;;5086062;28;20123;-42
2021/07/17 05:55:42;;;;;;;3.05;2.53;;;28.00;68.60;;;;;;5082728;28;20028;-41
2021/07/17 05:58:08;;;;;;;3.28;2.47;;;28.00;68.70;;;;;;5082745;28;20599;-42
2021/07/17 06:00:34;;;;;;;2.57;2.37;;;27.90;68.60;;;;;;5082751;28;20047;-41
2021/07/17 06:03:01;;;;;;;2.55;2.33;;;27.90;68.60;;;;;;5082295;28;20020;-41
2021/07/17 06:05:27;;;;;;;2.95;2.53;;;27.90;68.70;;;;;;5092804;28;20098;-41
2021/07/17 06:07:53;;;;;;;3.00;2.57;;;27.90;68.70;;;;;;5103068;28;20032;-41
2021/07/17 06:10:19;;;;;;;4.38;2.58;;;27.90;68.70;;;;;;5103051;28;20264;-42
2021/07/17 06:12:45;;;;;;;3.00;2.40;;;27.90;68.80;;;;;;5102661;28;20035;-42
2021/07/17 06:15:13;;;;;;;5.65;2.53;;;27.90;68.70;;;;;;5102786;28;20264;-42
2021/07/17 06:17:39;;;;;;;3.30;2.38;;;27.90;68.70;;;;;;5102871;28;20050;-41
2021/07/17 06:20:06;;;;;;;2.70;2.20;;;27.80;68.80;;;;;;5102563;28;20054;-41
2021/07/17 06:22:32;;;;;;;2.97;2.40;;;27.80;68.80;;;;;;5091687;28;20289;-42
2021/07/17 06:24:58;;;;;;;3.17;2.50;;;27.80;68.80;;;;;;5082566;28;20047;-42
2021/07/17 06:27:24;;;;;;;2.53;2.00;;;27.80;68.80;;;;;;5088556;28;20029;-41
2021/07/17 06:29:50;;;;;;;2.30;2.10;;;27.80;68.80;;;;;;5102744;28;20061;-41
2021/07/17 06:32:18;;;;;;;3.20;2.07;;;27.80;68.80;;;;;;5102329;28;20031;-41
2021/07/17 06:34:45;;;;;;;4.50;2.65;;;27.80;68.70;;;;;;5104246;28;20044;-42
2021/07/17 06:37:11;;;;;;;2.47;2.25;;;27.70;68.70;;;;;;5106617;28;20070;-42
2021/07/17 06:39:37;;;;;;;3.03;2.40;;;27.70;68.80;;;;;;5106876;28;20032;-41
2021/07/17 06:42:04;;;;;;;3.40;2.37;;;27.70;68.70;;;;;;5106814;28;20075;-42
2021/07/17 06:44:30;;;;;;;4.37;2.23;;;27.70;68.70;;;;;;5106494;28;20016;-42
2021/07/17 06:46:56;;;;;;;4.85;2.08;;;27.70;68.80;;;;;;5106601;28;20036;-42
2021/07/17 06:49:22;;;;;;;3.60;2.00;;;27.70;68.80;;;;;;5106630;28;20024;-42
2021/07/17 06:51:48;;;;;;;2.37;2.17;;;27.70;68.80;;;;;;5106433;28;20083;-42
2021/07/17 06:54:14;;;;;;;2.13;1.80;;;27.70;68.80;;;;;;5106325;28;20028;-42
2021/07/17 06:56:40;;;;;;;2.37;1.87;;;27.70;68.80;;;;;;5106395;28;20040;-42
2021/07/17 06:59:06;;;;;;;2.47;2.27;;;27.70;68.80;;;;;;5106470;28;20035;-42
2021/07/17 07:01:33;;;;;;;2.92;2.30;;;27.70;68.90;;;;;;5106303;28;20032;-42
2021/07/17 07:03:59;;;;;;;2.73;2.30;;;27.60;68.70;;;;;;5105820;28;20035;-41
2021/07/17 07:06:25;;;;;;;3.53;2.37;;;27.60;68.70;;;;;;5105971;28;20279;-42
2021/07/17 07:08:51;;;;;;;2.40;2.20;;;27.60;68.90;;;;;;5106205;28;20303;-42
2021/07/17 07:11:17;;;;;;;2.53;2.22;;;27.60;68.80;;;;;;5106060;28;20024;-42
2021/07/17 07:13:43;;;;;;;2.40;2.20;;;27.60;68.90;;;;;;5105735;28;20043;-42
2021/07/17 07:16:10;;;;;;;2.30;2.03;;;27.60;68.80;;;;;;5106015;28;20043;-41
2021/07/17 07:18:36;;;;;;;2.77;2.33;;;27.60;68.90;;;;;;5105795;28;20032;-42
2021/07/17 07:21:02;;;;;;;2.10;1.90;;;27.60;68.80;;;;;;5105902;28;20044;-41
2021/07/17 07:23:28;;;;;;;2.97;2.15;;;27.50;68.80;;;;;;5087039;28;20265;-42
2021/07/17 07:25:54;;;;;;;2.37;2.00;;;27.50;68.80;;;;;;5105579;28;20092;-41
2021/07/17 07:28:20;;;;;;;2.23;2.03;;;27.50;68.80;;;;;;5105676;28;20032;-41
2021/07/17 07:30:47;;;;;;;2.70;2.07;;;27.50;68.80;;;;;;5105776;28;20083;-42
2021/07/17 07:33:13;;;;;;;2.30;2.10;;;27.50;68.90;;;;;;5105311;28;20036;-42
2021/07/17 07:35:39;;;;;;;1.93;1.73;;;27.50;69.00;;;;;;5105172;28;20034;-42
2021/07/17 07:38:05;;;;;;;2.33;2.10;;;27.50;68.90;;;;;;5104931;28;20273;-43
2021/07/17 07:40:31;;;;;;;2.27;2.07;;;27.50;69.00;;;;;;5105311;28;20028;-41
2021/07/17 07:42:58;;;;;;;2.60;2.10;;;27.40;68.90;;;;;;5105327;28;20032;-42
2021/07/17 07:45:24;;;;;;;2.42;2.22;;;27.40;68.80;;;;;;5104561;28;20020;-41
2021/07/17 07:47:51;;;;;;;2.33;1.93;;;27.40;68.80;;;;;;5105376;28;20511;-42
2021/07/17 07:50:17;;;;;;;3.20;1.92;;;27.40;68.90;;;;;;5105224;28;20310;-41
2021/07/17 07:52:44;;;;;;;2.07;1.87;;;27.40;68.90;;;;;;5086963;28;20028;-41
2021/07/17 07:55:10;;;;;;;2.10;1.80;;;27.40;68.90;;;;;;5105017;28;20020;-42
2021/07/17 07:57:36;;;;;;;1.85;1.75;;;27.40;69.70;;;;;;5104887;28;20285;-42
2021/07/17 08:00:03;;;;;;;2.80;2.07;;;27.30;68.90;;;;;;5105062;28;20035;-42
2021/07/17 08:02:30;;;;;;;2.97;2.05;;;27.30;68.90;;;;;;5105019;28;20035;-41
2021/07/17 08:04:56;;;;;;;2.53;2.30;;;27.30;68.90;;;;;;5104719;28;20074;-42
2021/07/17 08:07:22;;;;;;;2.25;2.05;;;27.30;69.00;;;;;;5103723;28;20036;-42
2021/07/17 08:09:48;;;;;;;2.20;2.00;;;27.30;68.90;;;;;;5104766;28;20048;-42
2021/07/17 08:12:14;;;;;;;2.97;1.93;;;27.30;69.00;;;;;;5104969;28;20024;-46
2021/07/17 08:14:40;;;;;;;2.85;2.00;;;27.30;68.90;;;;;;5104682;28;20073;-42
2021/07/17 08:17:08;;;;;;;2.30;2.10;;;27.30;69.00;;;;;;5104797;28;20024;-41
2021/07/17 08:19:35;;;;;;;2.38;1.80;;;27.30;69.00;;;;;;5104600;28;20036;-43
2021/07/17 08:22:01;;;;;;;2.27;1.70;;;27.20;68.90;;;;;;5104427;28;20078;-41
2021/07/17 08:24:27;;;;;;;2.13;1.70;;;27.20;69.00;;;;;;5103897;28;20034;-42
2021/07/17 08:26:53;;;;;;;4.03;2.10;;;27.20;69.00;;;;;;5104468;28;20043;-42
2021/07/17 08:29:19;;;;;;;4.20;1.90;;;27.20;69.00;;;;;;5104438;28;20041;-41
2021/07/17 08:31:45;;;;;;;1.97;1.77;;;27.20;69.00;;;;;;5104445;28;20024;-42
2021/07/17 08:34:12;;;;;;;2.10;1.90;;;27.20;69.10;;;;;;5104078;28;20508;-41
2021/07/17 08:36:38;;;;;;;2.25;1.83;;;27.20;69.00;;;;;;5104221;28;20267;-42
2021/07/17 08:39:04;;;;;;;3.05;2.15;;;27.10;69.00;;;;;;5104365;28;20024;-42
2021/07/17 08:41:30;;;;;;;2.47;1.77;;;27.10;69.00;;;;;;5104156;28;20085;-42
2021/07/17 08:43:56;;;;;;;2.40;1.92;;;27.10;69.10;;;;;;5069079;28;20040;-41
2021/07/17 08:46:23;;;;;;;3.20;2.13;;;27.10;69.10;;;;;;5103773;28;20111;-42
2021/07/17 08:48:51;;;;;;;2.78;1.80;;;27.10;69.10;;;;;;5085818;28;20032;-42
2021/07/17 08:51:17;;;;;;;2.10;1.90;;;27.10;69.10;;;;;;5085655;28;20032;-43
2021/07/17 08:53:43;;;;;;;3.67;2.10;;;27.10;69.10;;;;;;5085372;28;20153;-42
2021/07/17 08:56:10;;;;;;;3.05;2.15;;;27.10;69.10;;;;;;5068180;28;20035;-42
2021/07/17 08:58:36;;;;;;;3.17;1.97;;;27.10;69.20;;;;;;5103345;28;20066;-41
2021/07/17 09:01:02;;;;;;;1.90;1.70;;;27.10;69.20;;;;;;5085633;28;20779;-41
2021/07/17 09:03:29;;;;;;;2.38;1.83;;;27.00;69.00;;;;;;5103660;28;20035;-42
2021/07/17 09:05:55;;;;;;;1.90;1.70;;;27.00;69.10;;;;;;5103509;28;20032;-42
2021/07/17 09:08:21;;;;;;;2.63;1.75;;;27.00;69.10;;;;;;5103742;28;20032;-41
2021/07/17 09:10:51;;;;;;;2.00;1.70;;;27.00;69.20;;;;;;5103545;28;20024;-42
2021/07/17 09:13:25;;;;;;;4.35;1.88;;;27.00;69.10;;;;;;5068692;28;20032;-42
2021/07/17 09:15:51;;;;;;;2.40;1.90;;;27.00;69.20;;;;;;5103380;28;20077;-42
2021/07/17 09:18:33;;;;;;;2.13;1.90;;;27.00;69.20;;;;;;5103570;28;20050;-42
2021/07/17 09:21:06;;;;;;;3.22;2.10;;;27.00;69.20;;;;;;5103432;28;20056;-41
2021/07/17 09:23:37;;;;;;;2.40;1.90;;;26.90;69.20;;;;;;5103019;28;20028;-41
2021/07/17 09:26:15;;;;;;;2.90;2.17;;;26.90;70.00;;;;;;5103081;28;20423;-41
2021/07/17 09:28:41;;;;;;;;;;;26.90;69.10;;;;;;5103806;28;20036;-41
2021/07/17 09:31:07;;;;;;;2.08;1.80;;;26.90;69.20;;;;;;5103146;28;19929;-42
2021/07/17 09:33:34;;;;;;;1.95;1.73;;;26.90;69.20;;;;;;5102980;28;20052;-41
2021/07/17 09:36:00;;;;;;;2.13;1.77;;;26.90;69.30;;;;;;5084604;28;20024;-43
2021/07/17 09:38:29;;;;;;;1.85;1.55;;;26.90;69.20;;;;;;5103039;28;20063;-42
2021/07/17 09:41:04;;;;;;;2.58;1.92;;;26.90;69.30;;;;;;5084977;28;20024;-42
2021/07/17 09:43:38;;;;;;;2.42;1.92;;;26.80;69.30;;;;;;5102969;28;20028;-42
2021/07/17 09:46:20;;;;;;;2.33;1.95;;;26.80;69.30;;;;;;5102635;28;20027;-43
2021/07/17 09:48:53;;;;;;;2.35;2.15;;;26.80;69.30;;;;;;5102866;28;20099;-42
2021/07/17 09:51:29;;;;;;;2.65;1.90;;;26.80;69.20;;;;;;5084934;28;20023;-42
2021/07/17 09:53:58;;;;;;;1.75;1.50;;;26.80;69.30;;;;;;5102892;28;20027;-42
2021/07/17 09:56:31;;;;;;;2.10;1.90;;;26.80;69.30;;;;;;5102464;28;20135;-42
2021/07/17 09:59:00;;;;;;;2.50;1.80;;;26.80;69.30;;;;;;5102663;28;20093;-42
2021/07/17 10:01:40;;;;;;;2.05;1.85;;;26.70;69.20;;;;;;5102700;28;20024;-42
2021/07/17 10:04:08;;;;;;;3.03;1.85;;;26.70;69.30;;;;;;5102661;28;20032;-42
2021/07/17 10:06:35;;;;;;;2.00;1.80;;;26.70;69.20;;;;;;5102427;28;20040;-42
2021/07/17 10:09:08;;;;;;;3.63;2.00;;;26.70;69.30;;;;;;5102360;28;20028;-42
2021/07/17 10:11:35;;;;;;;4.18;2.10;;;26.70;69.40;;;;;;5084498;28;20062;-42
2021/07/17 10:14:24;;;;;;;2.40;1.80;;;26.70;69.30;;;;;;5102595;28;20496;-41
2021/07/17 10:16:54;;;;;;;1.95;1.60;;;26.70;69.30;;;;;;5102424;28;20295;-42
2021/07/17 10:19:26;;;;;;;1.85;1.63;;;26.70;69.40;;;;;;5084683;28;20751;-43
2021/07/17 10:21:54;;;;;;;2.33;2.13;;;26.60;69.40;;;;;;5102588;28;20024;-42
2021/07/17 10:24:20;;;;;;;2.42;1.65;;;26.60;69.30;;;;;;5102195;28;20024;-42
2021/07/17 10:26:48;;;;;;;3.80;1.80;;;26.60;69.40;;;;;;5102047;28;20043;-42
2021/07/17 10:29:16;;;;;;;1.98;1.70;;;26.60;69.40;;;;;;5102418;28;20024;-42
2021/07/17 10:31:42;;;;;;;2.47;1.70;;;26.60;69.30;;;;;;5102433;28;20027;-42
2021/07/17 10:34:08;;;;;;;3.15;1.73;;;26.60;69.40;;;;;;5102374;28;20035;-42
2021/07/17 10:36:40;;;;;;;2.67;1.83;;;26.60;69.40;;;;;;5102409;28;20028;-41
2021/07/17 10:39:07;;;;;;;1.63;1.52;;;26.60;69.50;;;;;;5101947;28;20264;-42
2021/07/17 10:41:34;;;;;;;2.83;1.70;;;26.50;69.40;;;;;;5084348;28;20020;-42
2021/07/17 10:44:01;;;;;;;1.92;1.52;;;26.50;69.50;;;;;;5084129;28;20032;-42
2021/07/17 10:46:35;;;;;;;2.03;1.80;;;26.50;69.50;;;;;;5101957;28;20036;-41
2021/07/17 10:49:05;;;;;;;1.67;1.35;;;26.50;69.50;;;;;;5102074;28;20036;-42
2021/07/17 10:51:42;;;;;;;2.40;1.63;;;26.50;69.50;;;;;;5084019;28;20036;-42
2021/07/17 10:54:11;;;;;;;2.92;1.70;;;26.50;69.50;;;;;;5102147;28;20055;-42
2021/07/17 10:56:42;;;;;;;1.88;1.70;;;26.50;69.50;;;;;;5101893;28;20052;-42
2021/07/17 10:59:12;;;;;;;2.53;1.60;;;26.40;69.50;;;;;;5102069;28;20088;-42
2021/07/17 11:02:02;;;;;;;3.58;1.70;;;26.40;69.40;;;;;;5102075;28;20084;-42
2021/07/17 11:04:44;;;;;;;2.92;2.00;;;26.40;69.50;;;;;;5102171;28;20115;-42
2021/07/17 11:07:16;;;;;;;3.63;1.83;;;26.40;69.50;;;;;;5101777;28;20055;-41
2021/07/17 11:09:56;;;;;;;2.50;1.60;;;26.40;69.50;;;;;;5102020;28;20016;-42
2021/07/17 11:12:25;;;;;;;2.45;1.73;;;26.40;69.60;;;;;;5102151;28;20091;-42
2021/07/17 11:14:51;;;;;;;1.60;1.50;;;26.40;69.60;;;;;;5102072;28;20076;-42
2021/07/17 11:17:43;;;;;;;2.00;1.40;;;26.40;69.60;;;;;;5101897;28;20028;-41
2021/07/17 11:20:22;;;;;;;1.88;1.77;;;26.40;69.60;;;;;;5102348;28;20028;-42
2021/07/17 11:23:08;;;;;;;1.88;1.63;;;26.40;69.60;;;;;;5105609;28;20035;-42
2021/07/17 11:25:35;;;;;;;3.85;1.90;;;26.30;69.60;;;;;;5105721;28;20042;-41
2021/07/17 11:28:01;;;;;;;1.50;1.40;;;26.30;69.60;;;;;;5105227;28;20043;-42
2021/07/17 11:30:32;;;;;;;1.97;1.70;;;26.30;69.70;;;;;;5104961;28;20032;-41
2021/07/17 11:33:04;;;;;;;3.40;1.60;;;26.30;69.60;;;;;;5105362;28;20690;-42
2021/07/17 11:35:41;;;;;;;1.55;1.30;;;26.30;69.70;;;;;;5105475;28;20016;-42
2021/07/17 11:38:08;;;;;;;2.85;1.45;;;26.30;69.70;;;;;;5086928;28;20012;-42
2021/07/17 11:40:34;;;;;;;2.08;1.70;;;26.30;69.70;;;;;;5105222;28;20043;-42
2021/07/17 11:43:01;;;;;;;2.47;1.70;;;26.30;69.70;;;;;;5087137;28;20020;-42
2021/07/17 11:45:27;;;;;;;;;;;26.20;69.70;;;;;;5105855;28;20106;-42
2021/07/17 11:47:53;;;;;;;2.70;1.80;;;26.20;69.70;;;;;;5105107;28;19912;-42
2021/07/17 11:50:22;;;;;;;2.67;1.70;;;26.20;69.70;;;;;;5105379;28;20662;-41
2021/07/17 11:52:48;;;;;;;2.30;1.70;;;26.20;69.70;;;;;;5105033;28;20024;-42
2021/07/17 11:55:16;;;;;;;3.57;1.53;;;26.20;69.70;;;;;;5086878;28;20035;-41
2021/07/17 11:57:45;;;;;;;1.88;1.58;;;26.20;69.80;;;;;;5104981;28;20165;-41
2021/07/17 12:00:20;;;;;;;3.17;1.83;;;26.20;69.70;;;;;;5104918;28;20131;-42
2021/07/17 12:02:53;;;;;;;2.40;1.67;;;26.20;69.80;;;;;;5105207;28;20028;-42
2021/07/17 12:05:19;;;;;;;1.60;1.50;;;26.20;69.80;;;;;;5104932;28;20031;-41
2021/07/17 12:07:46;;;;;;;2.53;1.52;;;26.20;69.70;;;;;;5086278;28;20036;-42
2021/07/17 12:10:20;;;;;;;2.03;1.73;;;26.20;69.80;;;;;;5104797;28;20028;-41
2021/07/17 12:12:51;;;;;;;2.50;1.40;;;26.10;69.70;;;;;;5104959;28;20036;-42
2021/07/17 12:15:18;;;;;;;1.40;1.30;;;26.10;69.70;;;;;;5103997;28;20028;-42
2021/07/17 12:17:47;;;;;;;2.17;1.42;;;26.10;69.70;;;;;;5104586;28;20024;-42
2021/07/17 12:20:14;;;;;;;3.30;1.50;;;26.10;69.70;;;;;;5104597;28;20028;-42
2021/07/17 12:22:49;;;;;;;1.85;1.63;;;26.10;69.70;;;;;;5104288;28;20040;-42
2021/07/17 12:25:17;;;;;;;1.80;1.42;;;26.10;69.80;;;;;;5096793;28;20055;-41
2021/07/17 12:27:57;;;;;;;3.40;1.50;;;26.10;69.70;;;;;;5104257;28;20036;-41
2021/07/17 12:30:25;;;;;;;1.98;1.40;;;26.10;69.80;;;;;;5085889;28;20049;-42
2021/07/17 12:32:50;;;;;;;;;;;26.10;69.80;;;;;;5105066;28;20101;-42
2021/07/17 12:35:23;;;;;;;1.50;1.40;;;26.10;69.80;;;;;;5086280;28;20029;-42
2021/07/17 12:37:50;;;;;;;1.55;1.40;;;26.10;69.90;;;;;;5085754;28;20024;-42
2021/07/17 12:40:17;;;;;;;2.35;1.50;;;26.10;69.90;;;;;;5104206;28;20035;-42
2021/07/17 12:42:48;;;;;;;1.60;1.35;;;26.10;69.90;;;;;;5104474;28;20055;-42
2021/07/17 12:45:21;;;;;;;1.80;1.40;;;26.10;69.80;;;;;;5086328;28;20042;-42
2021/07/17 12:47:54;;;;;;;2.40;1.60;;;26.10;69.90;;;;;;5103949;28;20047;-41
2021/07/17 12:50:25;;;;;;;3.05;1.50;;;26.10;69.90;;;;;;5104074;28;20692;-41